Data for 09/29/2016

Time Sea-Level Adjusted Pressure Absolute Pressure Temperature Relative Humidity Dew Point   
(mb) (inHg) (mb) (inHg) (C) (F) (%) (C) (F)
00:05 1023 30.21 852 25.16 15.3 59.5 60 7.6 45.7
00:10 1023 30.21 852 25.16 15.1 59.3 61 7.7 45.9
00:15 1023 30.21 852 25.16 15.1 59.1 61 7.7 45.8
00:20 1023 30.21 852 25.16 15 59 61 7.7 45.8
00:25 1023 30.21 852 25.16 14.8 58.6 62 7.7 45.8
00:30 1023 30.21 852 25.16 14.7 58.4 62 7.6 45.7
00:35 1023 30.21 852 25.16 14.7 58.4 62 7.6 45.6
00:40 1023 30.21 852 25.16 14.6 58.3 62 7.6 45.6
00:45 1023 30.21 852 25.16 14.5 58 63 7.5 45.6
00:50 1023 30.21 852 25.16 14.4 57.9 63 7.5 45.5
00:55 1023 30.21 852 25.16 14.3 57.7 64 7.6 45.6
01:00 1023 30.21 852 25.16 14.3 57.7 63 7.5 45.5
01:05 1023 30.21 852 25.16 14.3 57.7 63 7.5 45.5
01:10 1023 30.21 852 25.16 14.2 57.5 64 7.4 45.4
01:15 1023 30.21 852 25.16 14.1 57.4 64 7.5 45.5
01:20 1023 30.21 852 25.16 14.2 57.6 64 7.5 45.5
01:25 1023 30.21 852 25.16 14.3 57.7 64 7.6 45.7
01:30 1023 30.21 852 25.16 14.3 57.7 64 7.7 45.8
01:35 1023 30.21 852 25.16 14.1 57.3 65 7.6 45.7
01:40 1023 30.21 852 25.16 13.9 57 64 7.4 45.3
01:45 1023 30.21 852 25.16 13.8 56.8 65 7.3 45.1
01:50 1023 30.21 852 25.16 13.7 56.6 65 7.2 44.9
01:55 1023 30.21 852 25.16 13.6 56.6 64 7.1 44.8
02:00 1023 30.21 852 25.16 13.6 56.5 64 7.1 44.7
02:05 1023 30.21 852 25.16 13.5 56.3 65 7 44.6
02:10 1023 30.21 852 25.16 13.4 56.1 65 7 44.6
02:15 1023 30.21 852 25.16 13.1 55.7 66 6.9 44.5
02:20 1023 30.21 852 25.16 13 55.4 66 6.9 44.4
02:25 1023 30.21 852 25.16 12.8 55.1 67 7 44.6
02:30 1023 30.21 852 25.16 12.8 55 68 7.1 44.9
02:35 1023 30.21 852 25.16 12.5 54.4 69 7 44.6
02:40 1023 30.21 852 25.16 12.2 54 70 7 44.5
02:45 1023 30.21 852 25.16 12.1 53.8 71 6.9 44.5
02:50 1023 30.21 852 25.16 12 53.7 70 6.8 44.3
02:55 1023 30.21 852 25.16 11.9 53.5 70 6.7 44.1
03:00 1023 30.21 852 25.16 12 53.5 69 6.5 43.7
03:05 1023 30.21 852 25.16 12.1 53.8 68 6.4 43.5
03:10 1023 30.21 852 25.16 12.3 54.2 68 6.6 43.9
03:15 1023 30.21 852 25.16 12.3 54.2 68 6.6 43.9
03:20 1023 30.21 852 25.16 12.1 53.7 69 6.6 43.8
03:25 1023 30.21 852 25.16 12 53.6 69 6.5 43.8
03:30 1023 30.21 852 25.16 12 53.7 68 6.5 43.6
03:35 1023 30.21 852 25.16 12.1 53.7 68 6.4 43.5
03:40 1023 30.21 852 25.16 12.2 54 67 6.4 43.5
03:45 1023 30.21 852 25.16 12.4 54.3 67 6.5 43.7
03:50 1023 30.21 852 25.16 12.2 53.9 68 6.4 43.6
03:55 1023 30.21 852 25.16 12.1 53.7 68 6.4 43.5
04:00 1023 30.21 852 25.16 12.1 53.9 67 6.3 43.3
04:05 1023 30.21 852 25.16 12.1 53.8 67 6.3 43.3
04:10 1023 30.21 852 25.16 12 53.5 67 6.2 43.1
04:15 1023 30.21 852 25.16 11.9 53.5 67 6.1 43
04:20 1023 30.21 852 25.16 12 53.6 67 6.2 43.1
04:25 1023 30.21 852 25.16 12 53.5 67 6.2 43.1
04:30 1023 30.21 852 25.16 12 53.7 67 6.2 43.1
04:35 1023 30.21 852 25.16 12.2 53.9 67 6.3 43.3
04:40 1023 30.21 852 25.16 12.2 53.9 67 6.3 43.4
04:45 1023 30.21 852 25.16 12 53.6 67 6.2 43.1
04:50 1023 30.21 852 25.16 12.1 53.7 67 6.2 43.1
04:55 1023 30.21 852 25.16 11.9 53.4 68 6.1 43.1
05:00 1023 30.21 852 25.16 11.6 52.9 68 6 42.8
05:05 1023 30.21 852 25.16 11.5 52.8 69 6 42.8
05:10 1023 30.21 852 25.16 11.6 52.9 68 6 42.8
05:15 1023 30.21 852 25.16 11.8 53.3 68 6.1 42.9
05:20 1023 30.21 852 25.16 11.8 53.3 67 6 42.8
05:25 1023 30.21 852 25.16 11.9 53.3 67 6 42.8
05:30 1023 30.21 852 25.16 11.8 53.2 67 6 42.8
05:35 1023 30.21 852 25.16 11.5 52.8 68 5.8 42.5
05:40 1023 30.21 852 25.16 11.4 52.6 68 5.7 42.3
05:45 1023 30.21 852 25.16 11.2 52.1 70 6 42.8
05:50 1023 30.21 852 25.16 10.9 51.6 72 6 42.9
05:55 1023 30.21 852 25.16 10.6 51.2 73 6.1 42.9
06:00 1023 30.21 852 25.16 10.6 51.2 72 5.8 42.5
06:05 1023 30.21 852 25.16 10.7 51.2 72 5.9 42.5
06:10 1023 30.21 852 25.16 10.4 50.7 73 5.8 42.4
06:15 1023 30.21 852 25.16 10.5 50.8 72 5.7 42.3
06:20 1023 30.21 852 25.16 10.7 51.2 72 5.9 42.6
06:25 1023 30.21 852 25.16 10.8 51.5 72 6 42.8
06:30 1023 30.21 852 25.16 11 51.8 72 6.2 43.2
06:35 1023 30.21 852 25.16 11.4 52.5 71 6.3 43.3
06:40 1023 30.21 852 25.16 10.8 51.4 72 6 42.8
06:45 1023 30.21 852 25.16 11 51.7 70 5.8 42.5
06:50 1023 30.21 852 25.16 11.2 52.1 70 5.9 42.6
06:55 1023 30.21 852 25.16 10.7 51.2 72 5.9 42.6
07:00 1023 30.21 852 25.16 10.9 51.7 67 5.2 41.3
07:05 1023 30.21 852 25.16 10.5 50.8 71 5.5 41.9
07:10 1023 30.21 852 25.16 10 50.1 69 4.6 40.3
07:15 1023 30.21 852 25.16 10.3 50.5 68 4.7 40.5
07:20 1023 30.21 852 25.16 10.1 50.1 68 4.4 39.9
07:25 1023 30.21 852 25.16 10.1 50.2 68 4.4 40
07:30 1023 30.21 852 25.16 9.9 49.8 68 4.3 39.7
07:35 1023 30.21 852 25.16 10.3 50.5 65 4 39.2
07:40 1023 30.21 852 25.16 10.7 51.3 64 4.3 39.7
07:45 1023 30.21 853 25.19 10.8 51.4 63 4 39.1
07:50 1023 30.21 853 25.19 11.2 52.2 61 4.1 39.3
07:55 1023 30.21 853 25.19 11.1 52 62 4.1 39.4
08:00 1023 30.21 853 25.19 11.3 52.3 59 3.7 38.7
08:05 1023 30.21 853 25.19 11.6 52.9 59 3.9 39.1
08:10 1023 30.21 853 25.19 12 53.7 60 4.5 40
08:15 1023 30.21 853 25.19 11.6 52.8 63 4.9 40.8
08:20 1023 30.21 853 25.19 11.3 52.3 65 4.9 40.9
08:25 1023 30.21 852 25.16 11.6 52.9 62 4.5 40.2
08:30 1023 30.21 852 25.16 12.2 54 59 4.6 40.2
08:35 1023 30.21 852 25.16 12.8 55 57 4.6 40.3
08:40 1023 30.21 852 25.16 13.1 55.6 56 4.6 40.2
08:45 1023 30.21 852 25.16 13.6 56.4 54 4.5 40
08:50 1023 30.21 852 25.16 13.7 56.6 57 5.3 41.5
08:55 1023 30.21 852 25.16 13.6 56.5 54 4.5 40
09:00 1023 30.21 852 25.16 14 57.3 53 4.7 40.5
09:05 1023 30.21 852 25.16 14 57.3 54 5.1 41.1
09:10 1023 30.21 852 25.16 14.1 57.4 54 5.1 41.1
09:15 1023 30.21 853 25.19 14.2 57.5 55 5.2 41.4
09:20 1023 30.21 852 25.16 14.4 57.8 52 4.6 40.4
09:25 1023 30.21 852 25.16 15 59 50 4.8 40.7
09:30 1023 30.21 852 25.16 15.4 59.8 49 4.9 40.8
09:35 1023 30.21 852 25.16 15.8 60.4 48 4.8 40.6
09:40 1023 30.21 853 25.19 16.5 61.7 47 5.1 41.2
09:45 1023 30.21 853 25.19 17.2 62.9 45 5.2 41.4
09:50 1023 30.21 853 25.19 17.5 63.5 48 6.4 43.5
09:55 1023 30.21 853 25.19 16.9 62.4 50 6.6 43.8
10:00 1023 30.21 853 25.19 17.3 63.2 48 6.3 43.3
10:05 1023 30.21 853 25.19 17.1 62.8 51 7.1 44.8
10:10 1023 30.21 853 25.19 17.1 62.7 57 8.6 47.4
10:15 1023 30.21 853 25.19 15.4 59.8 61 8 46.4
10:20 1023 30.21 853 25.19 15 58.9 61 7.6 45.7
10:25 1023 30.21 853 25.19 15.2 59.4 60 7.5 45.4
10:30 1023 30.21 853 25.19 16.1 61 56 7.5 45.5
10:35 1023 30.21 853 25.19 15.8 60.5 57 7.5 45.4
10:40 1024 30.24 853 25.19 16.2 61.1 58 7.9 46.2
10:45 1024 30.24 853 25.19 16 60.8 58 7.8 46.1
10:50 1024 30.24 853 25.19 15.7 60.2 58 7.6 45.7
10:55 1024 30.24 853 25.19 15.7 60.2 58 7.5 45.6
11:00 1024 30.24 853 25.19 15.4 59.7 58 7.2 45
11:05 1024 30.24 853 25.19 15.5 60 58 7.5 45.5
11:10 1024 30.24 853 25.19 15.4 59.8 59 7.4 45.4
11:15 1023 30.21 853 25.19 15.3 59.6 59 7.4 45.4
11:20 1023 30.21 853 25.19 15.7 60.2 57 7.3 45.2
11:25 1023 30.21 853 25.19 15.5 59.8 58 7.2 45
11:30 1023 30.21 853 25.19 15.9 60.5 55 6.9 44.4
11:35 1023 30.21 852 25.16 16 60.7 56 7.2 44.9
11:40 1023 30.21 852 25.16 16.3 61.3 55 7.2 44.9
11:45 1023 30.21 852 25.16 16.7 62.1 53 7.2 45
11:50 1023 30.21 852 25.16 16.7 62.1 53 7.2 45
11:55 1023 30.21 852 25.16 16.7 62.1 54 7.4 45.3
12:00 1023 30.21 852 25.16 17.1 62.7 54 7.7 45.9
12:05 1023 30.21 852 25.16 17.4 63.3 51 7.4 45.3
12:10 1023 30.21 852 25.16 17.9 64.2 51 7.7 45.9
12:15 1023 30.21 852 25.16 18.2 64.8 50 7.8 46.1
12:20 1023 30.21 852 25.16 18.8 65.8 48 7.6 45.7
12:25 1023 30.21 852 25.16 19.2 66.5 49 8.2 46.8
12:30 1023 30.21 852 25.16 18.9 66 48 7.9 46.2
12:35 1023 30.21 852 25.16 19.2 66.6 45 7.2 45
12:40 1023 30.21 852 25.16 19.5 67.1 48 8.4 47.1
12:45 1022 30.18 852 25.16 19.5 67.1 48 8.4 47
12:50 1022 30.18 852 25.16 19.7 67.4 48 8.6 47.4
12:55 1022 30.18 852 25.16 20.1 68.2 48 9 48.2
13:00 1022 30.18 852 25.16 20 67.9 49 9 48.3
13:05 1022 30.18 852 25.16 19.8 67.7 48 8.5 47.3
13:10 1022 30.18 851 25.13 20.1 68.1 45 8 46.4
13:15 1022 30.18 851 25.13 20.4 68.8 47 8.9 48
13:20 1022 30.18 851 25.13 20.7 69.2 44 8 46.4
13:25 1022 30.18 851 25.13 20.9 69.5 43 7.9 46.2
13:30 1022 30.18 851 25.13 21.4 70.4 38 6.7 44.1
13:35 1022 30.18 851 25.13 21.8 71.2 40 7.8 46
13:40 1022 30.18 851 25.13 22 71.6 38 7 44.6
13:45 1022 30.18 851 25.13 22.4 72.4 35 6.4 43.5
13:50 1022 30.18 851 25.13 22.9 73.3 32 5.5 42
13:55 1022 30.18 851 25.13 23.2 73.8 32 5.6 42.1
14:00 1022 30.18 851 25.13 23.2 73.8 33 6.2 43.2
14:05 1022 30.18 851 25.13 23.3 74 33 6.2 43.2
14:10 1022 30.18 851 25.13 23.5 74.4 32 6.1 43
14:15 1022 30.18 851 25.13 23.5 74.4 31 5.8 42.4
14:20 1021 30.15 851 25.13 23.5 74.3 32 6.3 43.3
14:25 1021 30.15 851 25.13 23.5 74.2 32 6.1 43
14:30 1021 30.15 851 25.13 23.5 74.3 31 5.6 42
14:35 1021 30.15 851 25.13 23.5 74.2 32 6 42.9
14:40 1021 30.15 851 25.13 23.3 73.9 32 5.9 42.6
14:45 1021 30.15 851 25.13 23.6 74.5 31 5.7 42.2
14:50 1021 30.15 851 25.13 23.8 74.8 32 6.5 43.7
14:55 1021 30.15 851 25.13 24.1 75.3 30 5.6 42.1
15:00 1021 30.15 850 25.1 24.1 75.4 29 5.3 41.6
15:05 1021 30.15 850 25.1 23.9 75.1 30 5.5 41.9
15:10 1021 30.15 850 25.1 23.6 74.4 31 5.7 42.2
15:15 1021 30.15 850 25.1 23.4 74.2 31 5.4 41.7
15:20 1021 30.15 850 25.1 23.4 74.2 31 5.6 42.1
15:25 1021 30.15 850 25.1 23.2 73.8 33 6.3 43.4
15:30 1021 30.15 850 25.1 23 73.3 34 6.3 43.3
15:35 1021 30.15 850 25.1 23.2 73.8 29 4.5 40.2
15:40 1021 30.15 850 25.1 23.3 74 32 6.1 43
15:45 1021 30.15 850 25.1 23.2 73.8 33 6.3 43.4
15:50 1021 30.15 850 25.1 23.2 73.8 34 6.7 44
15:55 1021 30.15 850 25.1 23.2 73.8 35 7.2 44.9
16:00 1021 30.15 850 25.1 23 73.4 34 6.7 44
16:05 1021 30.15 850 25.1 23.3 73.9 32 5.9 42.7
16:10 1021 30.15 850 25.1 23.3 73.9 31 5.3 41.6
16:15 1021 30.15 850 25.1 23.3 73.9 29 4.5 40.1
16:20 1021 30.15 850 25.1 23.6 74.5 29 4.6 40.2
16:25 1021 30.15 850 25.1 23.9 75.1 28 4.5 40.1
16:30 1021 30.15 850 25.1 24.1 75.4 28 4.5 40.1
16:35 1021 30.15 850 25.1 23.6 74.5 28 4.4 40
16:40 1021 30.15 850 25.1 23.3 73.9 29 4.6 40.2
16:45 1021 30.15 850 25.1 23.1 73.6 30 5 40.9
16:50 1021 30.15 850 25.1 22.6 72.8 32 5.3 41.6
16:55 1021 30.15 850 25.1 22.4 72.3 31 4.7 40.4
17:00 1021 30.15 850 25.1 22.3 72.1 29 3.8 38.8
17:05 1021 30.15 850 25.1 22.4 72.2 29 3.8 38.8
17:10 1021 30.15 850 25.1 22.5 72.4 30 4.1 39.4
17:15 1021 30.15 850 25.1 22.8 73 31 4.8 40.7
17:20 1021 30.15 850 25.1 22.9 73.2 35 6.8 44.3
17:25 1021 30.15 850 25.1 22 71.6 37 6.7 44
17:30 1021 30.15 850 25.1 21.5 70.6 39 6.9 44.5
17:35 1021 30.15 850 25.1 21.3 70.4 39 6.8 44.3
17:40 1021 30.15 850 25.1 21.6 70.9 37 6.3 43.4
17:45 1021 30.15 850 25.1 21.7 71 35 5.9 42.7
17:50 1021 30.15 850 25.1 21.9 71.5 37 6.6 43.9
17:55 1021 30.15 850 25.1 21.9 71.4 36 6.3 43.3
18:00 1021 30.15 850 25.1 21.8 71.3 34 5.4 41.7
18:05 1021 30.15 850 25.1 21.7 71 33 5 41
18:10 1021 30.15 850 25.1 21.5 70.6 34 4.9 40.9
18:15 1021 30.15 850 25.1 21.2 70.2 34 5.1 41.2
18:20 1021 30.15 850 25.1 21 69.8 36 5.3 41.6
18:25 1021 30.15 850 25.1 20.8 69.5 36 5.5 41.9
18:30 1021 30.15 850 25.1 20.7 69.3 37 5.6 42
18:35 1021 30.15 850 25.1 20.5 69 38 5.7 42.3
18:40 1021 30.15 850 25.1 20.2 68.4 38 5.6 42.1
18:45 1021 30.15 850 25.1 20 67.9 38 5.5 41.8
18:50 1021 30.15 850 25.1 19.7 67.5 39 5.4 41.8
18:55 1021 30.15 850 25.1 19.5 67.1 39 5.4 41.7
19:00 1021 30.15 850 25.1 19.3 66.7 40 5.4 41.8
19:05 1021 30.15 850 25.1 19.1 66.4 40 5.4 41.8
19:10 1021 30.15 850 25.1 19 66.2 40 5.2 41.3
19:15 1021 30.15 850 25.1 18.9 66.1 40 5.2 41.3
19:20 1021 30.15 850 25.1 18.9 66.1 40 5 41
19:25 1021 30.15 850 25.1 18.9 66 40 5.2 41.3
19:30 1021 30.15 850 25.1 18.7 65.7 41 5.2 41.4
19:35 1021 30.15 850 25.1 18.6 65.4 42 5.4 41.8
19:40 1021 30.15 850 25.1 18.4 65.1 41 5.1 41.2
19:45 1021 30.15 850 25.1 18.4 65.2 40 4.9 40.8
19:50 1021 30.15 850 25.1 18.5 65.2 40 4.7 40.5
19:55 1021 30.15 850 25.1 18.5 65.3 40 4.8 40.7
20:00 1021 30.15 850 25.1 18.5 65.2 41 5 40.9
20:05 1021 30.15 850 25.1 18.4 65.1 41 5.1 41.1
20:10 1021 30.15 850 25.1 18.3 64.9 41 5.1 41.2
20:15 1021 30.15 850 25.1 18.2 64.8 42 5.1 41.2
20:20 1021 30.15 850 25.1 18.2 64.7 42 5.1 41.3
20:25 1021 30.15 850 25.1 18.2 64.7 41 4.9 40.9
20:30 1021 30.15 850 25.1 18.3 64.9 42 5.2 41.4
20:35 1021 30.15 850 25.1 18.1 64.6 42 5.2 41.4
20:40 1021 30.15 850 25.1 18.1 64.5 42 5.2 41.3
20:45 1021 30.15 850 25.1 18.1 64.6 42 5.1 41.2
20:50 1021 30.15 850 25.1 18.1 64.5 42 5.2 41.3
20:55 1021 30.15 850 25.1 17.9 64.3 43 5.2 41.4
21:00 1021 30.15 850 25.1 17.9 64.2 43 5.4 41.6
21:05 1021 30.15 850 25.1 17.8 64.1 42 4.9 40.9
21:10 1021 30.15 850 25.1 17.9 64.3 43 5.2 41.4
21:15 1021 30.15 850 25.1 17.8 64.1 42 4.9 40.8
21:20 1021 30.15 850 25.1 18.2 64.7 42 5.1 41.1
21:25 1021 30.15 850 25.1 18.1 64.5 41 4.9 40.8
21:30 1021 30.15 850 25.1 18 64.4 43 5.4 41.7
21:35 1021 30.15 851 25.13 17.6 63.7 43 5 41
21:40 1021 30.15 850 25.1 17.8 64 43 5.1 41.3
21:45 1021 30.15 851 25.13 17.6 63.6 44 5.4 41.7
21:50 1021 30.15 851 25.13 17.3 63.2 45 5.3 41.6
21:55 1021 30.15 851 25.13 16.8 62.3 47 5.4 41.8
22:00 1021 30.15 851 25.13 16.6 61.9 46 5.1 41.1
22:05 1021 30.15 851 25.13 16.8 62.2 46 5.2 41.3
22:10 1022 30.18 851 25.13 16.8 62.3 46 5.2 41.4
22:15 1022 30.18 851 25.13 16.7 62.1 46 5.2 41.4
22:20 1022 30.18 851 25.13 16.8 62.2 48 5.9 42.6
22:25 1022 30.18 851 25.13 16.8 62.3 48 5.9 42.7
22:30 1022 30.18 851 25.13 16.9 62.3 45 5 41
22:35 1022 30.18 851 25.13 17 62.6 48 6 42.8
22:40 1022 30.18 851 25.13 16.9 62.4 44 4.7 40.4
22:45 1022 30.18 851 25.13 16.9 62.3 51 6.8 44.2
22:50 1022 30.18 851 25.13 16.5 61.6 48 5.5 41.9
22:55 1022 30.18 851 25.13 16.4 61.4 48 5.4 41.7
23:00 1022 30.18 851 25.13 16.4 61.5 49 5.7 42.2
23:05 1022 30.18 852 25.16 16.1 61 51 6 42.9
23:10 1022 30.18 852 25.16 15.8 60.4 52 6 42.7
23:15 1023 30.21 852 25.16 15.6 60.1 53 6.2 43.1
23:20 1023 30.21 852 25.16 15.4 59.6 55 6.4 43.6
23:25 1023 30.21 852 25.16 15 59 55 6.1 42.9
23:30 1023 30.21 852 25.16 15 58.9 55 6 42.7
23:35 1023 30.21 852 25.16 15 59 56 6.5 43.6
23:40 1023 30.21 852 25.16 14.9 58.9 56 6.3 43.4
23:45 1023 30.21 852 25.16 14.7 58.4 57 6.3 43.3
23:50 1023 30.21 852 25.16 14.6 58.3 57 6.2 43.1
23:55 1023 30.21 852 25.16 14.6 58.2 55 5.8 42.4
24:00 1023 30.21 852 25.16 14.8 58.6 54 5.8 42.4